San Francisco, CA (94105)

10:28 PM PST on February 26, 2015 (GMT -0800)
Financial District | Change Station
CLOSE
Current Station
Personal Weather Station
Location: San Francisco, CA
Elevation: 100 ft
Nearby Weather Stations

Elev 100 ft 37.79 °N, 122.40 °W | Updated 11 seconds ago

Partly Cloudy
Partly Cloudy
58.8 °F
Feels Like 58.8 °F
N
1.6
Wind Variable Wind from SSE
Gusts 1.6 mph

Today
High -- | Low -- °F
--% Chance of Precip.
Yesterday
High -- | Low -- °F
Precip. -- in
6:45 AM 6:00 PM
Waxing Gibbous, 66% visible
Pressure 29.94 in
Visibility 10.0 miles
Clouds Few 1200 ft
Dew Point 49 °F
Humidity 69%
Rainfall 0.00 in
Snow Depth Not available.
UV 0.0 out of 12
Pollen 7.30 out of 12
Air Quality Not available.
Flu Activity Not available.
METAR KOAK 270553Z 30005KT 10SM FEW012 14/09 A2994 RMK AO2 SLP136 T01390094 10178 20139 50001

More Conditions Fewer Conditions

Pressure 29.94 in
Visibility 10.0 miles
Clouds Few 1200 ft
Dew Point 49 °F
Humidity 69%
Rainfall 0.00 in
Snow Depth Not available.
UV 0.0 out of 12
Pollen 7.30 out of 12
Air Quality Not available.
Flu Activity Not available.
METAR KOAK 270553Z 30005KT 10SM FEW012 14/09 A2994 RMK AO2 SLP136 T01390094 10178 20139 50001

More Conditions Fewer Conditions

10-Day Weather Forecast

Almanac

Astronomy

Feb. 26, 2015 Rise Set
Actual Time
Civil Twilight
Nautical Twilight
Astronomical Twilight
Moon
Length of Visible Light
Length of Day
Tomorrow will be .
, % of the Moon is Illuminated

Today's Extremes

State Highs State Lows

Community

WunderPhotos

Upload Photos

1,800,646 photos uploaded!

WunderBlogs® & News

Nearby

Air Quality

  Air Quality AQ Index Pollutant
Not available.

Snow Depth

Station Depth Elevation

Earthquake Activity

City Distance Mag. Time & Date
Minimum magnitude displayed is 2.5.

Coastal Water Temperatures

Place Temperature

Nearby Weather Stations